createdAt,value
2023-04-23T00:00:22.397Z,7.72
2023-04-23T00:02:53.895Z,8.05
2023-04-23T00:05:21.691Z,6.97
2023-04-23T00:07:49.390Z,7.22
2023-04-23T00:10:17.001Z,8.05
2023-04-23T00:12:44.708Z,7.95
2023-04-23T00:15:13.093Z,6.80
2023-04-23T00:17:40.551Z,7.07
2023-04-23T00:20:09.451Z,6.20
2023-04-23T00:22:36.766Z,7.20
2023-04-23T00:25:04.311Z,6.93
2023-04-23T00:27:31.860Z,6.15
2023-04-23T00:29:59.186Z,6.82
2023-04-23T00:32:36.161Z,7.13
2023-04-23T00:35:04.439Z,7.13
2023-04-23T00:37:33.381Z,6.28
2023-04-23T00:40:01.237Z,6.85
2023-04-23T00:42:32.351Z,7.20
2023-04-23T00:45:01.410Z,5.90
2023-04-23T00:47:31.875Z,5.97
2023-04-23T00:50:00.219Z,6.18
2023-04-23T00:52:29.440Z,5.75
2023-04-23T00:54:57.366Z,6.38
2023-04-23T00:57:25.111Z,5.80
2023-04-23T00:59:52.621Z,5.68
2023-04-23T01:02:20.167Z,5.82
2023-04-23T01:04:51.488Z,6.20
2023-04-23T01:07:19.059Z,6.28
2023-04-23T01:09:46.859Z,6.18
2023-04-23T01:12:14.522Z,5.85
2023-04-23T01:14:42.164Z,6.13
2023-04-23T01:17:10.352Z,6.22
2023-04-23T01:19:38.060Z,5.80
2023-04-23T01:22:14.651Z,5.80
2023-04-23T01:24:43.354Z,5.75
2023-04-23T01:27:11.446Z,4.88
2023-04-23T01:29:39.910Z,5.50
2023-04-23T01:32:08.149Z,5.72
2023-04-23T01:34:39.284Z,5.13
2023-04-23T01:37:07.662Z,5.15
2023-04-23T01:39:36.356Z,5.55
2023-04-23T01:42:07.294Z,5.20
2023-04-23T01:44:34.990Z,5.85
2023-04-23T01:47:03.113Z,5.72
2023-04-23T01:49:32.447Z,5.43
2023-04-23T01:52:00.037Z,5.53
2023-04-23T01:54:27.706Z,6.05
2023-04-23T01:56:56.059Z,5.72
2023-04-23T01:59:23.770Z,4.97
2023-04-23T02:01:51.380Z,5.97
2023-04-23T02:04:19.255Z,5.03
2023-04-23T02:06:49.285Z,5.50
2023-04-23T02:09:16.999Z,5.45
2023-04-23T02:11:44.416Z,6.20
2023-04-23T02:14:11.868Z,5.15
2023-04-23T02:16:40.169Z,5.75
2023-04-23T02:19:07.663Z,4.93
2023-04-23T02:21:35.048Z,4.78
2023-04-23T02:24:02.520Z,4.60
2023-04-23T02:26:30.613Z,5.53
2023-04-23T02:28:57.981Z,5.07
2023-04-23T02:31:25.427Z,5.25
2023-04-23T02:33:52.829Z,5.32
2023-04-23T02:36:21.727Z,4.88
2023-04-23T02:38:51.424Z,4.68
2023-04-23T02:41:18.994Z,5.53
2023-04-23T02:43:47.143Z,4.75
2023-04-23T02:46:14.677Z,4.95
2023-04-23T02:48:42.293Z,4.70
2023-04-23T02:51:12.224Z,5.40
2023-04-23T02:53:39.766Z,5.10
2023-04-23T02:56:07.599Z,4.80
2023-04-23T02:58:35.489Z,5.63
2023-04-23T03:01:03.000Z,5.22
2023-04-23T03:03:32.502Z,5.82
2023-04-23T03:06:02.921Z,6.18
2023-04-23T03:08:30.575Z,6.20
2023-04-23T03:10:58.023Z,5.50
2023-04-23T03:13:26.354Z,5.03
2023-04-23T03:15:54.550Z,7.05
2023-04-23T03:18:21.971Z,7.55
2023-04-23T03:20:52.962Z,7.53
2023-04-23T03:23:20.409Z,6.38
2023-04-23T03:25:48.745Z,6.80
2023-04-23T03:28:16.328Z,6.10
2023-04-23T03:30:45.076Z,6.40
2023-04-23T03:33:12.686Z,7.03
2023-04-23T03:35:40.657Z,6.78
2023-04-23T03:38:12.627Z,7.57
2023-04-23T03:40:41.286Z,7.25
2023-04-23T03:43:10.131Z,8.00
2023-04-23T03:45:57.423Z,7.18
2023-04-23T03:48:25.187Z,7.55
2023-04-23T03:50:52.707Z,8.00
2023-04-23T03:53:33.020Z,9.18
2023-04-23T03:56:20.264Z,8.77
2023-04-23T03:58:57.737Z,10.13
2023-04-23T04:01:25.172Z,8.07
2023-04-23T04:03:53.027Z,7.60
2023-04-23T04:06:20.787Z,8.52
2023-04-23T04:08:48.180Z,7.72
2023-04-23T04:11:15.639Z,7.28
2023-04-23T04:13:58.915Z,7.20
2023-04-23T04:16:26.747Z,7.32
2023-04-23T04:19:14.323Z,6.93
2023-04-23T04:21:41.674Z,6.47
2023-04-23T04:24:11.726Z,7.10
2023-04-23T04:26:40.016Z,7.53
2023-04-23T04:29:07.419Z,6.50
2023-04-23T04:31:35.114Z,7.75
2023-04-23T04:34:03.034Z,7.57
2023-04-23T04:36:30.637Z,6.95
2023-04-23T04:38:59.097Z,7.75
2023-04-23T04:41:26.480Z,6.65
2023-04-23T04:43:54.942Z,6.25
2023-04-23T04:46:22.378Z,6.55
2023-04-23T04:48:49.745Z,7.15
2023-04-23T04:51:17.177Z,6.50
2023-04-23T04:53:44.576Z,6.05
2023-04-23T04:56:11.900Z,6.78
2023-04-23T04:58:39.241Z,5.47
2023-04-23T05:01:06.824Z,5.78
2023-04-23T05:03:34.325Z,6.30
2023-04-23T05:06:01.830Z,5.90
2023-04-23T05:08:29.404Z,5.45
2023-04-23T05:10:56.787Z,6.15
2023-04-23T05:13:24.170Z,5.32
2023-04-23T05:15:51.602Z,5.55
2023-04-23T05:18:19.428Z,5.88
2023-04-23T05:20:46.849Z,6.43
2023-04-23T05:23:14.708Z,5.60
2023-04-23T05:25:42.097Z,5.47
2023-04-23T05:28:09.919Z,6.40
2023-04-23T05:30:37.352Z,4.72
2023-04-23T05:33:04.872Z,4.97
2023-04-23T05:35:32.316Z,6.70
2023-04-23T05:38:00.220Z,6.07
2023-04-23T05:40:27.524Z,6.22
2023-04-23T05:42:55.085Z,6.35
2023-04-23T05:45:22.645Z,6.43
2023-04-23T05:47:50.050Z,6.20
2023-04-23T05:50:17.749Z,5.70
2023-04-23T05:52:45.163Z,5.20
2023-04-23T05:55:12.663Z,5.05
2023-04-23T05:57:40.066Z,3.60
2023-04-23T06:00:12.034Z,5.25
2023-04-23T06:02:42.198Z,4.32
2023-04-23T06:05:10.385Z,3.50
2023-04-23T06:07:38.022Z,3.85
2023-04-23T06:10:06.014Z,3.65
2023-04-23T06:12:33.663Z,3.40
2023-04-23T06:15:01.175Z,2.88
2023-04-23T06:17:30.910Z,2.75
2023-04-23T06:19:58.218Z,2.63
2023-04-23T06:22:26.012Z,2.30
2023-04-23T06:24:53.487Z,2.00
2023-04-23T06:27:20.796Z,2.22
2023-04-23T06:29:50.962Z,2.13
2023-04-23T06:32:20.533Z,2.40
2023-04-23T06:35:00.107Z,1.42
2023-04-23T06:37:32.107Z,1.38
2023-04-23T06:39:59.975Z,1.20
2023-04-23T06:42:27.515Z,1.48
2023-04-23T06:45:15.712Z,1.33
2023-04-23T06:47:43.202Z,1.23
2023-04-23T06:50:10.707Z,1.20
2023-04-23T06:52:38.252Z,1.15
2023-04-23T06:55:06.524Z,1.10
2023-04-23T06:57:34.077Z,1.42
2023-04-23T07:00:01.483Z,9.88
2023-04-23T07:02:35.827Z,2.15
2023-04-23T07:05:03.590Z,1.40
2023-04-23T07:07:32.820Z,1.10
2023-04-23T07:10:01.180Z,0.90
2023-04-23T07:12:31.425Z,1.30
2023-04-23T07:14:58.910Z,1.10
2023-04-23T07:17:26.406Z,0.70
2023-04-23T07:19:53.774Z,0.70
2023-04-23T07:22:21.162Z,0.90
2023-04-23T07:24:48.518Z,0.50
2023-04-23T07:27:15.866Z,0.80
2023-04-23T07:29:43.441Z,0.85
2023-04-23T07:32:10.954Z,0.75
2023-04-23T07:34:39.550Z,0.40
2023-04-23T07:37:07.223Z,0.70
2023-04-23T07:39:34.976Z,0.50
2023-04-23T07:42:02.439Z,0.90
2023-04-23T07:44:30.121Z,0.68
2023-04-23T07:46:57.581Z,0.98
2023-04-23T07:49:25.847Z,0.98
2023-04-23T07:51:53.724Z,0.68
2023-04-23T07:54:21.181Z,1.00
2023-04-23T07:56:48.640Z,0.82
2023-04-23T07:59:16.271Z,1.05
2023-04-23T08:01:43.636Z,0.70
2023-04-23T08:04:12.484Z,0.70
2023-04-23T08:06:40.027Z,0.90
2023-04-23T08:09:07.491Z,0.65
2023-04-23T08:11:34.984Z,0.80
2023-04-23T08:14:02.351Z,0.90
2023-04-23T08:16:30.932Z,0.80
2023-04-23T08:19:05.295Z,0.82
2023-04-23T08:21:35.106Z,0.82
2023-04-23T08:24:03.376Z,0.65
2023-04-23T08:26:31.776Z,1.00
2023-04-23T08:29:01.078Z,1.40
2023-04-23T08:31:28.812Z,0.63
2023-04-23T08:33:56.810Z,1.00
2023-04-23T08:36:24.890Z,1.13
2023-04-23T08:38:52.226Z,0.80
2023-04-23T08:41:23.679Z,0.70
2023-04-23T08:49:01.211Z,1.10
2023-04-23T08:51:32.816Z,1.30
2023-04-23T08:54:06.238Z,1.10
2023-04-23T08:56:33.959Z,1.13
2023-04-23T08:59:03.777Z,1.30
2023-04-23T09:01:31.319Z,1.10
2023-04-23T09:03:59.287Z,1.20
2023-04-23T09:06:27.167Z,1.20
2023-04-23T09:08:55.864Z,1.10
2023-04-23T09:11:24.864Z,1.00
2023-04-23T09:13:52.287Z,1.02
2023-04-23T09:16:19.787Z,1.20
2023-04-23T09:18:47.460Z,1.00
2023-04-23T09:21:14.822Z,1.35
2023-04-23T09:23:42.523Z,1.15
2023-04-23T09:26:10.046Z,1.17
2023-04-23T09:28:38.606Z,1.10
2023-04-23T09:31:06.633Z,1.38
2023-04-23T09:33:36.063Z,1.35
2023-04-23T09:36:12.433Z,1.20
2023-04-23T09:38:41.828Z,1.60
2023-04-23T09:41:27.314Z,1.42
2023-04-23T09:43:56.358Z,0.88
2023-04-23T09:46:43.716Z,1.38
2023-04-23T09:49:12.626Z,0.95
2023-04-23T09:51:41.512Z,1.20
2023-04-23T09:54:20.008Z,0.95
2023-04-23T09:56:54.024Z,1.30
2023-04-23T09:59:29.365Z,1.13
2023-04-23T10:02:03.061Z,1.58
2023-04-23T10:04:30.606Z,0.90
2023-04-23T10:07:17.176Z,1.00
2023-04-23T10:09:46.265Z,1.20
2023-04-23T10:14:46.954Z,0.82
2023-04-23T10:17:14.684Z,0.80
2023-04-23T10:19:43.850Z,0.90
2023-04-23T10:22:19.484Z,1.10
2023-04-23T10:24:52.618Z,0.98
2023-04-23T10:27:36.194Z,1.30
2023-04-23T10:30:10.856Z,1.13
2023-04-23T10:32:39.284Z,1.13
2023-04-23T10:35:08.268Z,1.45
2023-04-23T10:37:36.829Z,1.38
2023-04-23T10:40:11.742Z,1.00
2023-04-23T10:42:40.384Z,0.70
2023-04-23T10:45:23.348Z,1.02
2023-04-23T10:47:51.345Z,1.00
2023-04-23T10:50:29.914Z,1.08
2023-04-23T10:52:58.485Z,1.10
2023-04-23T10:55:28.406Z,0.93
2023-04-23T10:58:02.375Z,1.15
2023-04-23T11:00:46.693Z,1.70
2023-04-23T11:03:44.341Z,1.17
2023-04-23T11:06:16.606Z,1.10
2023-04-23T11:08:54.202Z,1.02
2023-04-23T11:11:39.950Z,1.20
2023-04-23T11:14:15.049Z,0.98
2023-04-23T11:16:42.902Z,1.40
2023-04-23T11:19:12.989Z,1.30
2023-04-23T11:22:04.853Z,1.10
2023-04-23T11:24:34.604Z,1.40
2023-04-23T11:27:03.070Z,1.60
2023-04-23T11:29:30.721Z,2.58
2023-04-23T11:32:02.679Z,1.50
2023-04-23T11:34:33.449Z,2.28
2023-04-23T11:37:01.518Z,1.02
2023-04-23T11:39:29.028Z,1.60
2023-04-23T11:41:57.401Z,0.93
2023-04-23T11:44:25.056Z,1.33
2023-04-23T11:46:52.399Z,1.40
2023-04-23T11:49:20.426Z,1.40
2023-04-23T11:51:48.858Z,1.05
2023-04-23T11:54:16.623Z,1.38
2023-04-23T11:56:45.384Z,1.80
2023-04-23T11:59:12.775Z,1.38
2023-04-23T12:01:42.099Z,1.08
2023-04-23T12:04:11.686Z,1.00
2023-04-23T12:06:41.313Z,1.40
2023-04-23T12:09:08.945Z,1.48
2023-04-23T12:11:36.612Z,1.70
2023-04-23T12:14:04.275Z,1.52
2023-04-23T12:16:42.315Z,3.53
2023-04-23T12:19:15.226Z,2.50
2023-04-23T12:27:01.215Z,1.60
2023-04-23T12:29:31.938Z,1.33
2023-04-23T12:32:00.714Z,1.20
2023-04-23T12:34:28.415Z,1.70
2023-04-23T12:36:57.898Z,1.73
2023-04-23T12:42:07.127Z,2.28
2023-04-23T12:44:35.960Z,1.67
2023-04-23T12:47:07.667Z,2.05
2023-04-23T12:49:36.950Z,1.92
2023-04-23T12:52:05.968Z,3.85
2023-04-23T12:54:37.984Z,3.40
2023-04-23T12:57:08.047Z,3.60
2023-04-23T12:59:35.565Z,4.70
2023-04-23T13:02:04.886Z,4.78
2023-04-23T13:04:34.057Z,4.70
2023-04-23T13:07:01.786Z,6.45
2023-04-23T13:09:30.419Z,8.05
2023-04-23T13:11:58.188Z,7.70
2023-04-23T13:14:25.608Z,8.57
2023-04-23T13:16:53.476Z,7.60
2023-04-23T13:19:21.024Z,7.63
2023-04-23T13:21:48.341Z,7.70
2023-04-23T13:24:15.759Z,8.38
2023-04-23T13:26:43.170Z,7.47
2023-04-23T13:29:10.897Z,7.50
2023-04-23T13:31:38.638Z,6.78
2023-04-23T13:34:06.032Z,7.32
2023-04-23T13:36:35.439Z,6.32
2023-04-23T13:39:05.209Z,7.32
2023-04-23T13:41:36.369Z,7.88
2023-04-23T13:44:07.247Z,8.65
2023-04-23T13:46:37.768Z,7.22
2023-04-23T13:49:10.253Z,5.97
2023-04-23T13:51:40.235Z,5.45
2023-04-23T13:54:14.732Z,6.45
2023-04-23T13:56:44.573Z,6.40
2023-04-23T13:59:20.035Z,5.57
2023-04-23T14:01:50.498Z,6.28
2023-04-23T14:04:21.638Z,7.45
2023-04-23T14:06:54.587Z,7.10
2023-04-23T14:09:24.346Z,8.50
2023-04-23T14:11:55.100Z,7.63
2023-04-23T14:14:33.148Z,7.78
2023-04-23T14:17:03.880Z,7.40
2023-04-23T14:19:36.866Z,7.28
2023-04-23T14:22:10.248Z,7.35
2023-04-23T14:24:47.924Z,5.93
2023-04-23T14:27:16.581Z,5.25
2023-04-23T14:35:08.086Z,4.75
2023-04-23T14:37:37.205Z,5.60
2023-04-23T14:40:14.742Z,5.13
2023-04-23T14:42:43.139Z,4.78
2023-04-23T14:45:13.780Z,4.20
2023-04-23T14:47:51.330Z,4.25
2023-04-23T14:50:22.241Z,3.92
2023-04-23T14:52:53.439Z,3.67
2023-04-23T14:55:22.462Z,3.80
2023-04-23T14:57:49.885Z,3.72
2023-04-23T15:00:18.422Z,3.20
2023-04-23T15:02:47.155Z,3.83
2023-04-23T15:05:17.187Z,3.42
2023-04-23T15:07:47.088Z,2.97
2023-04-23T15:10:34.240Z,3.20
2023-04-23T15:16:07.450Z,3.95
2023-04-23T15:18:53.924Z,2.95
2023-04-23T15:21:26.847Z,4.43
2023-04-23T15:23:56.516Z,4.35
2023-04-23T15:30:16.124Z,5.15
2023-04-23T15:32:43.492Z,5.70
2023-04-23T15:35:10.958Z,6.05
2023-04-23T15:37:38.258Z,5.68
2023-04-23T15:40:06.123Z,6.22
2023-04-23T15:42:33.473Z,5.53
2023-04-23T15:45:00.930Z,5.97
2023-04-23T15:47:28.348Z,6.28
2023-04-23T15:49:55.774Z,7.13
2023-04-23T15:52:23.149Z,7.63
2023-04-23T15:54:50.736Z,8.30
2023-04-23T15:57:19.225Z,8.75
2023-04-23T15:59:47.219Z,9.35
2023-04-23T16:02:14.831Z,9.30
2023-04-23T16:04:42.556Z,10.40
2023-04-23T16:07:10.674Z,10.43
2023-04-23T16:09:38.052Z,8.48
2023-04-23T16:12:05.592Z,8.98
2023-04-23T16:14:32.938Z,7.28
2023-04-23T16:17:00.394Z,7.47
2023-04-23T16:19:28.688Z,5.95
2023-04-23T16:21:56.208Z,6.85
2023-04-23T16:24:24.808Z,7.20
2023-04-23T16:26:52.114Z,7.05
2023-04-23T16:29:22.830Z,6.20
2023-04-23T16:31:50.764Z,6.35
2023-04-23T16:34:18.121Z,6.88
2023-04-23T16:36:45.651Z,7.00
2023-04-23T16:39:13.005Z,7.00
2023-04-23T16:41:40.350Z,7.68
2023-04-23T16:44:07.692Z,8.85
2023-04-23T16:46:35.463Z,7.75
2023-04-23T16:49:02.881Z,7.53
2023-04-23T16:51:30.510Z,9.88
2023-04-23T16:53:58.056Z,7.75
2023-04-23T16:56:25.600Z,8.90
2023-04-23T16:58:52.978Z,9.25
2023-04-23T17:01:20.546Z,8.80
2023-04-23T17:03:48.214Z,8.95
2023-04-23T17:06:27.324Z,7.53
2023-04-23T17:08:55.830Z,8.25
2023-04-23T17:11:23.296Z,7.43
2023-04-23T17:13:51.723Z,7.35
2023-04-23T17:16:19.268Z,7.18
2023-04-23T17:18:46.858Z,7.05
2023-04-23T17:21:14.701Z,6.82
2023-04-23T17:23:42.137Z,7.25
2023-04-23T17:26:09.806Z,5.85
2023-04-23T17:28:37.400Z,6.20
2023-04-23T17:31:04.900Z,6.60
2023-04-23T17:33:32.304Z,5.68
2023-04-23T17:35:59.728Z,6.30
2023-04-23T17:38:27.200Z,5.95
2023-04-23T17:40:55.068Z,5.28
2023-04-23T17:43:22.707Z,5.13
2023-04-23T17:45:50.122Z,7.00
2023-04-23T17:48:17.541Z,6.93
2023-04-23T17:50:45.195Z,6.47
2023-04-23T17:53:12.554Z,6.22
2023-04-23T17:55:39.909Z,7.65
2023-04-23T17:58:07.765Z,6.22
2023-04-23T18:00:37.653Z,5.95
2023-04-23T18:03:06.766Z,6.60
2023-04-23T18:05:34.601Z,5.50
2023-04-23T18:08:02.690Z,5.25
2023-04-23T18:10:30.172Z,5.82
2023-04-23T18:12:57.689Z,5.05
2023-04-23T18:15:25.997Z,4.60
2023-04-23T18:17:56.046Z,5.07
2023-04-23T18:20:25.066Z,4.78
2023-04-23T18:22:54.692Z,5.72
2023-04-23T18:25:22.429Z,5.03
2023-04-23T18:27:49.998Z,5.28
2023-04-23T18:30:18.045Z,5.00
2023-04-23T18:32:48.655Z,4.65
2023-04-23T18:35:16.196Z,5.68
2023-04-23T18:38:09.911Z,5.13
2023-04-23T18:40:53.083Z,5.53
2023-04-23T18:43:20.675Z,5.47
2023-04-23T18:45:48.142Z,5.50
2023-04-23T18:51:23.236Z,4.90
2023-04-23T18:53:50.837Z,5.07
2023-04-23T18:56:18.212Z,5.18
2023-04-23T18:58:45.557Z,5.35
2023-04-23T19:01:12.950Z,5.78
2023-04-23T19:03:40.537Z,5.82
2023-04-23T19:06:08.169Z,5.32
2023-04-23T19:08:36.189Z,6.43
2023-04-23T19:11:04.260Z,4.93
2023-04-23T19:13:31.660Z,6.00
2023-04-23T19:15:59.802Z,5.38
2023-04-23T19:18:28.012Z,6.10
2023-04-23T19:20:55.555Z,5.82
2023-04-23T19:23:23.106Z,5.68
2023-04-23T19:25:50.541Z,6.20
2023-04-23T19:28:18.114Z,5.35
2023-04-23T19:30:45.732Z,5.28
2023-04-23T19:33:13.121Z,5.25
2023-04-23T19:35:40.618Z,5.45
2023-04-23T19:38:08.619Z,7.63
2023-04-23T19:40:36.104Z,9.10
2023-04-23T19:43:03.841Z,10.85
2023-04-23T19:45:32.488Z,8.27
2023-04-23T19:48:00.333Z,9.75
2023-04-23T19:50:27.784Z,11.10
2023-04-23T19:52:55.189Z,14.82
2023-04-23T19:55:27.310Z,12.32
2023-04-23T19:57:55.356Z,12.52
2023-04-23T20:00:24.033Z,14.65
2023-04-23T20:02:53.017Z,14.15
2023-04-23T20:05:20.502Z,13.57
2023-04-23T20:07:48.192Z,14.55
2023-04-23T20:10:17.435Z,13.45
2023-04-23T20:12:45.069Z,13.45
2023-04-23T20:15:12.965Z,11.73
2023-04-23T20:17:40.547Z,10.48
2023-04-23T20:20:09.699Z,10.48
2023-04-23T20:22:37.103Z,10.65
2023-04-23T20:25:05.489Z,7.88
2023-04-23T20:27:34.256Z,7.65
2023-04-23T20:30:01.674Z,8.05
2023-04-23T20:32:32.733Z,8.02
2023-04-23T20:35:00.573Z,7.05
2023-04-23T20:37:28.695Z,6.65
2023-04-23T20:39:56.312Z,6.70
2023-04-23T20:42:25.798Z,7.70
2023-04-23T20:44:53.331Z,6.00
2023-04-23T20:47:20.794Z,6.53
2023-04-23T20:49:48.191Z,6.75
2023-04-23T20:52:15.635Z,7.13
2023-04-23T20:54:43.024Z,7.80
2023-04-23T20:57:11.140Z,7.57
2023-04-23T20:59:38.474Z,7.32
2023-04-23T21:02:07.541Z,7.90
2023-04-23T21:04:50.689Z,7.35
2023-04-23T21:07:18.250Z,7.05
2023-04-23T21:09:45.712Z,7.28
2023-04-23T21:12:13.237Z,6.90
2023-04-23T21:14:40.711Z,8.07
2023-04-23T21:17:09.699Z,7.63
2023-04-23T21:19:37.085Z,7.25
2023-04-23T21:22:04.398Z,7.50
2023-04-23T21:24:31.684Z,6.72
2023-04-23T21:26:59.054Z,7.03
2023-04-23T21:29:26.708Z,7.03
2023-04-23T21:31:54.111Z,7.13
2023-04-23T21:34:22.314Z,7.10
2023-04-23T21:36:50.093Z,7.20
2023-04-23T21:39:17.483Z,7.05
2023-04-23T21:41:45.756Z,7.68
2023-04-23T21:44:13.145Z,7.10
2023-04-23T21:46:41.391Z,6.97
2023-04-23T21:49:09.352Z,6.75
2023-04-23T21:51:37.262Z,5.88
2023-04-23T21:54:06.176Z,6.03
2023-04-23T21:56:34.363Z,5.50
2023-04-23T21:59:02.429Z,6.53
2023-04-23T22:01:30.123Z,6.35
2023-04-23T22:03:58.450Z,6.65
2023-04-23T22:06:26.084Z,6.00
2023-04-23T22:08:54.788Z,6.50
2023-04-23T22:11:22.832Z,5.80
2023-04-23T22:13:50.232Z,6.85
2023-04-23T22:16:27.332Z,6.50
2023-04-23T22:18:57.152Z,6.45
2023-04-23T22:21:24.665Z,6.07
2023-04-23T22:23:52.269Z,7.25
2023-04-23T22:26:19.625Z,7.38
2023-04-23T22:28:47.151Z,5.85
2023-04-23T22:31:14.539Z,5.97
2023-04-23T22:33:41.975Z,5.40
2023-04-23T22:36:09.347Z,6.32
2023-04-23T22:38:36.832Z,6.72
2023-04-23T22:41:04.210Z,6.47
2023-04-23T22:43:31.743Z,6.18
2023-04-23T22:45:59.166Z,6.85
2023-04-23T22:48:28.042Z,5.47
2023-04-23T22:50:55.345Z,5.88
2023-04-23T22:53:22.705Z,5.50
2023-04-23T22:55:50.095Z,6.57
2023-04-23T22:58:17.496Z,5.90
2023-04-23T23:00:44.910Z,5.55
2023-04-23T23:03:12.386Z,5.78
2023-04-23T23:05:39.808Z,6.43
2023-04-23T23:08:07.243Z,5.53
2023-04-23T23:10:34.688Z,6.20
2023-04-23T23:13:02.330Z,5.80
2023-04-23T23:15:29.923Z,5.15
2023-04-23T23:17:58.084Z,6.13
2023-04-23T23:20:25.834Z,6.38
2023-04-23T23:22:53.195Z,5.28
2023-04-23T23:25:20.770Z,6.35
2023-04-23T23:27:48.099Z,5.18
2023-04-23T23:30:15.932Z,5.90
2023-04-23T23:32:43.350Z,5.72
2023-04-23T23:35:10.760Z,5.03
2023-04-23T23:37:38.193Z,5.35
2023-04-23T23:40:06.202Z,5.30
2023-04-23T23:42:33.562Z,5.03
2023-04-23T23:45:00.948Z,5.80
2023-04-23T23:47:30.374Z,5.45
2023-04-23T23:49:57.834Z,6.18
2023-04-23T23:52:25.174Z,6.07
2023-04-23T23:54:52.449Z,5.68
2023-04-23T23:57:19.801Z,5.97
2023-04-23T23:59:47.276Z,5.85
